sensor_id;sensor_type;location;lat;lon;timestamp;temperature;humidity
27200;DHT22;14714;48.106;11.546;2023-04-26T00:01:29;6.70;99.90
27200;DHT22;14714;48.106;11.546;2023-04-26T00:03:56;6.70;99.90
27200;DHT22;14714;48.106;11.546;2023-04-26T00:06:23;6.70;99.90
27200;DHT22;14714;48.106;11.546;2023-04-26T00:08:52;6.60;99.90
27200;DHT22;14714;48.106;11.546;2023-04-26T00:11:20;6.60;99.90
27200;DHT22;14714;48.106;11.546;2023-04-26T00:13:47;6.60;99.90
27200;DHT22;14714;48.106;11.546;2023-04-26T00:16:13;6.60;99.90
27200;DHT22;14714;48.106;11.546;2023-04-26T00:18:40;6.60;99.90
27200;DHT22;14714;48.106;11.546;2023-04-26T00:21:08;6.60;99.90
27200;DHT22;14714;48.106;11.546;2023-04-26T00:23:35;6.70;99.90
27200;DHT22;14714;48.106;11.546;2023-04-26T00:26:02;6.60;99.90
27200;DHT22;14714;48.106;11.546;2023-04-26T00:28:29;6.60;99.90
27200;DHT22;14714;48.106;11.546;2023-04-26T00:30:57;6.60;99.90
27200;DHT22;14714;48.106;11.546;2023-04-26T00:33:24;6.60;99.90
27200;DHT22;14714;48.106;11.546;2023-04-26T00:35:51;6.60;99.90
27200;DHT22;14714;48.106;11.546;2023-04-26T00:38:18;6.60;99.90
27200;DHT22;14714;48.106;11.546;2023-04-26T00:40:45;6.60;99.90
27200;DHT22;14714;48.106;11.546;2023-04-26T00:43:12;6.60;99.90
27200;DHT22;14714;48.106;11.546;2023-04-26T00:45:38;6.60;99.90
27200;DHT22;14714;48.106;11.546;2023-04-26T00:48:05;6.60;99.90
27200;DHT22;14714;48.106;11.546;2023-04-26T00:50:32;6.50;99.90
27200;DHT22;14714;48.106;11.546;2023-04-26T00:53:01;6.60;99.90
27200;DHT22;14714;48.106;11.546;2023-04-26T00:55:28;6.60;99.90
27200;DHT22;14714;48.106;11.546;2023-04-26T00:57:55;6.50;99.90
27200;DHT22;14714;48.106;11.546;2023-04-26T01:00:21;6.60;99.90
27200;DHT22;14714;48.106;11.546;2023-04-26T01:02:48;6.60;99.90
27200;DHT22;14714;48.106;11.546;2023-04-26T01:05:16;6.60;99.90
27200;DHT22;14714;48.106;11.546;2023-04-26T01:07:43;6.60;99.90
27200;DHT22;14714;48.106;11.546;2023-04-26T01:10:10;6.50;99.90
27200;DHT22;14714;48.106;11.546;2023-04-26T01:12:38;6.50;99.90
27200;DHT22;14714;48.106;11.546;2023-04-26T01:15:05;6.40;99.90
27200;DHT22;14714;48.106;11.546;2023-04-26T01:17:32;6.40;99.90
27200;DHT22;14714;48.106;11.546;2023-04-26T01:19:59;6.40;99.90
27200;DHT22;14714;48.106;11.546;2023-04-26T01:22:26;6.40;99.90
27200;DHT22;14714;48.106;11.546;2023-04-26T01:24:54;6.40;99.90
27200;DHT22;14714;48.106;11.546;2023-04-26T01:27:23;6.30;99.90
27200;DHT22;14714;48.106;11.546;2023-04-26T01:29:50;6.30;99.90
27200;DHT22;14714;48.106;11.546;2023-04-26T01:32:17;6.30;99.90
27200;DHT22;14714;48.106;11.546;2023-04-26T01:34:44;6.30;99.90
27200;DHT22;14714;48.106;11.546;2023-04-26T01:37:11;6.30;99.90
27200;DHT22;14714;48.106;11.546;2023-04-26T01:39:38;6.30;99.90
27200;DHT22;14714;48.106;11.546;2023-04-26T01:42:05;6.20;99.90
27200;DHT22;14714;48.106;11.546;2023-04-26T01:44:31;6.20;99.90
27200;DHT22;14714;48.106;11.546;2023-04-26T01:46:58;6.20;99.90
27200;DHT22;14714;48.106;11.546;2023-04-26T01:49:25;6.20;99.90
27200;DHT22;14714;48.106;11.546;2023-04-26T01:51:52;6.10;99.90
27200;DHT22;14714;48.106;11.546;2023-04-26T01:54:18;6.20;99.90
27200;DHT22;14714;48.106;11.546;2023-04-26T01:56:45;6.10;99.90
27200;DHT22;14714;48.106;11.546;2023-04-26T01:59:12;6.10;99.90
27200;DHT22;14714;48.106;11.546;2023-04-26T02:01:41;6.10;99.90
27200;DHT22;14714;48.106;11.546;2023-04-26T02:04:09;6.00;99.90
27200;DHT22;14714;48.106;11.546;2023-04-26T02:06:35;6.10;99.90
27200;DHT22;14714;48.106;11.546;2023-04-26T02:09:06;6.00;99.90
27200;DHT22;14714;48.106;11.546;2023-04-26T02:11:35;6.00;99.90
27200;DHT22;14714;48.106;11.546;2023-04-26T02:14:02;6.10;99.90
27200;DHT22;14714;48.106;11.546;2023-04-26T02:16:28;6.10;99.90
27200;DHT22;14714;48.106;11.546;2023-04-26T02:18:55;6.00;99.90
27200;DHT22;14714;48.106;11.546;2023-04-26T02:21:22;6.00;99.90
27200;DHT22;14714;48.106;11.546;2023-04-26T02:23:49;6.00;99.90
27200;DHT22;14714;48.106;11.546;2023-04-26T02:26:16;5.90;99.90
27200;DHT22;14714;48.106;11.546;2023-04-26T02:28:42;5.90;99.90
27200;DHT22;14714;48.106;11.546;2023-04-26T02:31:09;5.90;99.90
27200;DHT22;14714;48.106;11.546;2023-04-26T02:33:36;5.80;99.90
27200;DHT22;14714;48.106;11.546;2023-04-26T02:36:04;5.80;99.90
27200;DHT22;14714;48.106;11.546;2023-04-26T02:38:35;5.80;99.90
27200;DHT22;14714;48.106;11.546;2023-04-26T02:41:03;5.70;99.90
27200;DHT22;14714;48.106;11.546;2023-04-26T02:43:30;5.70;99.90
27200;DHT22;14714;48.106;11.546;2023-04-26T02:45:56;5.70;99.90
27200;DHT22;14714;48.106;11.546;2023-04-26T02:48:26;5.70;99.90
27200;DHT22;14714;48.106;11.546;2023-04-26T02:50:53;5.70;99.90
27200;DHT22;14714;48.106;11.546;2023-04-26T02:53:19;5.70;99.90
27200;DHT22;14714;48.106;11.546;2023-04-26T02:55:47;5.60;99.90
27200;DHT22;14714;48.106;11.546;2023-04-26T02:58:13;5.60;99.90
27200;DHT22;14714;48.106;11.546;2023-04-26T03:00:47;5.60;99.90
27200;DHT22;14714;48.106;11.546;2023-04-26T03:03:14;5.60;99.90
27200;DHT22;14714;48.106;11.546;2023-04-26T03:05:41;5.60;99.90
27200;DHT22;14714;48.106;11.546;2023-04-26T03:08:08;5.60;99.90
27200;DHT22;14714;48.106;11.546;2023-04-26T03:10:35;5.60;99.90
27200;DHT22;14714;48.106;11.546;2023-04-26T03:13:03;5.60;99.90
27200;DHT22;14714;48.106;11.546;2023-04-26T03:15:30;5.60;99.90
27200;DHT22;14714;48.106;11.546;2023-04-26T03:17:57;5.60;99.90
27200;DHT22;14714;48.106;11.546;2023-04-26T03:20:24;5.60;99.90
27200;DHT22;14714;48.106;11.546;2023-04-26T03:22:51;5.50;99.90
27200;DHT22;14714;48.106;11.546;2023-04-26T03:25:18;5.50;99.90
27200;DHT22;14714;48.106;11.546;2023-04-26T03:27:45;5.50;99.90
27200;DHT22;14714;48.106;11.546;2023-04-26T03:30:12;5.50;99.90
27200;DHT22;14714;48.106;11.546;2023-04-26T03:32:39;5.50;99.90
27200;DHT22;14714;48.106;11.546;2023-04-26T03:35:06;5.50;99.90
27200;DHT22;14714;48.106;11.546;2023-04-26T03:37:32;5.50;99.90
27200;DHT22;14714;48.106;11.546;2023-04-26T03:39:59;5.50;99.90
27200;DHT22;14714;48.106;11.546;2023-04-26T03:42:26;5.50;99.90
27200;DHT22;14714;48.106;11.546;2023-04-26T03:44:53;5.50;99.90
27200;DHT22;14714;48.106;11.546;2023-04-26T03:47:19;5.50;99.90
27200;DHT22;14714;48.106;11.546;2023-04-26T03:49:46;5.50;99.90
27200;DHT22;14714;48.106;11.546;2023-04-26T03:52:13;5.50;99.90
27200;DHT22;14714;48.106;11.546;2023-04-26T03:54:40;5.60;99.90
27200;DHT22;14714;48.106;11.546;2023-04-26T03:57:07;5.60;99.90
27200;DHT22;14714;48.106;11.546;2023-04-26T03:59:33;5.60;99.90
27200;DHT22;14714;48.106;11.546;2023-04-26T04:02:00;5.50;99.90
27200;DHT22;14714;48.106;11.546;2023-04-26T04:04:27;5.60;99.90
27200;DHT22;14714;48.106;11.546;2023-04-26T04:06:54;5.60;99.90
27200;DHT22;14714;48.106;11.546;2023-04-26T04:09:21;5.60;99.90
27200;DHT22;14714;48.106;11.546;2023-04-26T04:12:00;5.60;99.90
27200;DHT22;14714;48.106;11.546;2023-04-26T04:14:28;5.70;99.90
27200;DHT22;14714;48.106;11.546;2023-04-26T04:16:55;5.60;99.90
27200;DHT22;14714;48.106;11.546;2023-04-26T04:19:22;5.60;99.90
27200;DHT22;14714;48.106;11.546;2023-04-26T04:21:48;5.70;99.90
27200;DHT22;14714;48.106;11.546;2023-04-26T04:24:15;5.60;99.90
27200;DHT22;14714;48.106;11.546;2023-04-26T04:26:42;5.70;99.90
27200;DHT22;14714;48.106;11.546;2023-04-26T04:29:09;5.70;99.90
27200;DHT22;14714;48.106;11.546;2023-04-26T04:31:37;5.70;99.90
27200;DHT22;14714;48.106;11.546;2023-04-26T04:34:05;5.70;99.90
27200;DHT22;14714;48.106;11.546;2023-04-26T04:36:32;5.70;99.90
27200;DHT22;14714;48.106;11.546;2023-04-26T04:38:59;5.70;99.90
27200;DHT22;14714;48.106;11.546;2023-04-26T04:41:26;5.70;99.90
27200;DHT22;14714;48.106;11.546;2023-04-26T04:43:53;5.80;99.90
27200;DHT22;14714;48.106;11.546;2023-04-26T04:46:20;5.80;99.90
27200;DHT22;14714;48.106;11.546;2023-04-26T04:48:47;5.80;99.90
27200;DHT22;14714;48.106;11.546;2023-04-26T04:51:15;5.80;99.90
27200;DHT22;14714;48.106;11.546;2023-04-26T04:53:42;5.90;99.90
27200;DHT22;14714;48.106;11.546;2023-04-26T04:56:09;5.90;99.90
27200;DHT22;14714;48.106;11.546;2023-04-26T04:58:36;5.90;99.90
27200;DHT22;14714;48.106;11.546;2023-04-26T05:01:02;6.00;99.90
27200;DHT22;14714;48.106;11.546;2023-04-26T05:03:29;6.00;99.90
27200;DHT22;14714;48.106;11.546;2023-04-26T05:05:57;6.00;99.90
27200;DHT22;14714;48.106;11.546;2023-04-26T05:08:24;6.00;99.90
27200;DHT22;14714;48.106;11.546;2023-04-26T05:10:51;6.10;99.90
27200;DHT22;14714;48.106;11.546;2023-04-26T05:13:18;6.20;99.90
27200;DHT22;14714;48.106;11.546;2023-04-26T05:15:45;6.20;99.90
27200;DHT22;14714;48.106;11.546;2023-04-26T05:18:12;6.30;99.90
27200;DHT22;14714;48.106;11.546;2023-04-26T05:20:39;6.30;99.90
27200;DHT22;14714;48.106;11.546;2023-04-26T05:23:06;6.40;99.90
27200;DHT22;14714;48.106;11.546;2023-04-26T05:25:36;6.50;99.90
27200;DHT22;14714;48.106;11.546;2023-04-26T05:28:03;6.60;99.90
27200;DHT22;14714;48.106;11.546;2023-04-26T05:30:29;6.70;99.90
27200;DHT22;14714;48.106;11.546;2023-04-26T05:32:56;6.70;99.90
27200;DHT22;14714;48.106;11.546;2023-04-26T05:35:23;6.80;99.90
27200;DHT22;14714;48.106;11.546;2023-04-26T05:37:50;6.90;99.90
27200;DHT22;14714;48.106;11.546;2023-04-26T05:40:17;6.90;99.90
27200;DHT22;14714;48.106;11.546;2023-04-26T05:42:44;6.90;99.90
27200;DHT22;14714;48.106;11.546;2023-04-26T05:45:11;6.90;99.90
27200;DHT22;14714;48.106;11.546;2023-04-26T05:47:37;6.90;99.90
27200;DHT22;14714;48.106;11.546;2023-04-26T05:50:05;6.80;99.90
27200;DHT22;14714;48.106;11.546;2023-04-26T05:52:32;6.80;99.90
27200;DHT22;14714;48.106;11.546;2023-04-26T05:54:59;6.80;99.90
27200;DHT22;14714;48.106;11.546;2023-04-26T05:57:29;6.80;99.90
27200;DHT22;14714;48.106;11.546;2023-04-26T05:59:56;6.80;99.90
27200;DHT22;14714;48.106;11.546;2023-04-26T06:02:23;6.80;99.90
27200;DHT22;14714;48.106;11.546;2023-04-26T06:04:49;6.90;99.90
27200;DHT22;14714;48.106;11.546;2023-04-26T06:07:17;6.90;99.90
27200;DHT22;14714;48.106;11.546;2023-04-26T06:09:44;6.90;99.90
27200;DHT22;14714;48.106;11.546;2023-04-26T06:12:11;7.00;99.90
27200;DHT22;14714;48.106;11.546;2023-04-26T06:14:37;7.00;99.90
27200;DHT22;14714;48.106;11.546;2023-04-26T06:17:04;7.00;99.90
27200;DHT22;14714;48.106;11.546;2023-04-26T06:19:31;7.10;99.90
27200;DHT22;14714;48.106;11.546;2023-04-26T06:21:58;7.20;99.90
27200;DHT22;14714;48.106;11.546;2023-04-26T06:24:25;7.20;99.90
27200;DHT22;14714;48.106;11.546;2023-04-26T06:26:52;7.20;99.90
27200;DHT22;14714;48.106;11.546;2023-04-26T06:29:19;7.20;99.90
27200;DHT22;14714;48.106;11.546;2023-04-26T06:31:46;7.20;99.90
27200;DHT22;14714;48.106;11.546;2023-04-26T06:34:13;7.20;99.90
27200;DHT22;14714;48.106;11.546;2023-04-26T06:36:40;7.20;99.90
27200;DHT22;14714;48.106;11.546;2023-04-26T06:39:07;7.40;99.90
27200;DHT22;14714;48.106;11.546;2023-04-26T06:41:33;7.70;99.90
27200;DHT22;14714;48.106;11.546;2023-04-26T06:44:00;8.40;99.90
27200;DHT22;14714;48.106;11.546;2023-04-26T06:46:27;9.80;99.90
27200;DHT22;14714;48.106;11.546;2023-04-26T06:48:54;11.20;99.90
27200;DHT22;14714;48.106;11.546;2023-04-26T06:51:21;12.50;99.90
27200;DHT22;14714;48.106;11.546;2023-04-26T06:53:48;13.50;99.90
27200;DHT22;14714;48.106;11.546;2023-04-26T06:56:15;14.40;99.90
27200;DHT22;14714;48.106;11.546;2023-04-26T06:59:00;15.30;99.90
27200;DHT22;14714;48.106;11.546;2023-04-26T07:01:28;15.60;99.90
27200;DHT22;14714;48.106;11.546;2023-04-26T07:04:00;15.00;97.40
27200;DHT22;14714;48.106;11.546;2023-04-26T07:06:30;14.20;96.90
27200;DHT22;14714;48.106;11.546;2023-04-26T07:08:57;13.60;98.90
27200;DHT22;14714;48.106;11.546;2023-04-26T07:11:25;13.10;99.90
27200;DHT22;14714;48.106;11.546;2023-04-26T07:13:52;12.80;99.90
27200;DHT22;14714;48.106;11.546;2023-04-26T07:16:19;12.60;99.90
27200;DHT22;14714;48.106;11.546;2023-04-26T07:18:46;12.60;99.90
27200;DHT22;14714;48.106;11.546;2023-04-26T07:21:18;12.70;99.90
27200;DHT22;14714;48.106;11.546;2023-04-26T07:23:45;13.00;99.90
27200;DHT22;14714;48.106;11.546;2023-04-26T07:26:12;13.00;99.70
27200;DHT22;14714;48.106;11.546;2023-04-26T07:28:38;13.00;99.90
27200;DHT22;14714;48.106;11.546;2023-04-26T07:31:05;13.50;99.90
27200;DHT22;14714;48.106;11.546;2023-04-26T07:33:35;14.10;99.20
27200;DHT22;14714;48.106;11.546;2023-04-26T07:36:02;14.30;96.10
27200;DHT22;14714;48.106;11.546;2023-04-26T07:38:29;14.00;96.20
27200;DHT22;14714;48.106;11.546;2023-04-26T07:40:56;13.70;96.70
27200;DHT22;14714;48.106;11.546;2023-04-26T07:43:22;13.20;97.10
27200;DHT22;14714;48.106;11.546;2023-04-26T07:45:49;12.90;99.90
27200;DHT22;14714;48.106;11.546;2023-04-26T07:48:17;12.90;99.60
27200;DHT22;14714;48.106;11.546;2023-04-26T07:50:44;13.10;99.30
27200;DHT22;14714;48.106;11.546;2023-04-26T07:53:10;13.30;99.50
27200;DHT22;14714;48.106;11.546;2023-04-26T07:55:37;14.30;99.90
27200;DHT22;14714;48.106;11.546;2023-04-26T07:58:04;16.40;99.70
27200;DHT22;14714;48.106;11.546;2023-04-26T08:00:31;18.80;90.80
27200;DHT22;14714;48.106;11.546;2023-04-26T08:02:58;20.60;79.20
27200;DHT22;14714;48.106;11.546;2023-04-26T08:05:25;21.60;69.30
27200;DHT22;14714;48.106;11.546;2023-04-26T08:07:53;21.40;59.00
27200;DHT22;14714;48.106;11.546;2023-04-26T08:10:20;20.10;60.00
27200;DHT22;14714;48.106;11.546;2023-04-26T08:12:47;18.90;62.80
27200;DHT22;14714;48.106;11.546;2023-04-26T08:15:13;17.90;63.80
27200;DHT22;14714;48.106;11.546;2023-04-26T08:17:40;16.80;66.70
27200;DHT22;14714;48.106;11.546;2023-04-26T08:20:07;15.90;73.10
27200;DHT22;14714;48.106;11.546;2023-04-26T08:22:35;15.70;78.60
27200;DHT22;14714;48.106;11.546;2023-04-26T08:25:02;16.50;77.50
27200;DHT22;14714;48.106;11.546;2023-04-26T08:27:30;17.30;72.30
27200;DHT22;14714;48.106;11.546;2023-04-26T08:29:57;18.00;67.90
27200;DHT22;14714;48.106;11.546;2023-04-26T08:32:24;19.00;63.60
27200;DHT22;14714;48.106;11.546;2023-04-26T08:34:51;19.80;59.20
27200;DHT22;14714;48.106;11.546;2023-04-26T08:37:18;20.50;59.50
27200;DHT22;14714;48.106;11.546;2023-04-26T08:39:45;21.10;59.60
27200;DHT22;14714;48.106;11.546;2023-04-26T08:42:14;21.20;56.70
27200;DHT22;14714;48.106;11.546;2023-04-26T08:44:42;20.70;55.40
27200;DHT22;14714;48.106;11.546;2023-04-26T08:47:14;19.70;56.60
27200;DHT22;14714;48.106;11.546;2023-04-26T08:49:46;18.60;58.20
27200;DHT22;14714;48.106;11.546;2023-04-26T08:52:19;17.40;60.70
27200;DHT22;14714;48.106;11.546;2023-04-26T08:54:49;16.40;65.30
27200;DHT22;14714;48.106;11.546;2023-04-26T08:57:17;15.50;66.10
27200;DHT22;14714;48.106;11.546;2023-04-26T08:59:44;14.80;67.90
27200;DHT22;14714;48.106;11.546;2023-04-26T09:02:17;14.20;73.40
27200;DHT22;14714;48.106;11.546;2023-04-26T09:04:48;13.80;74.30
27200;DHT22;14714;48.106;11.546;2023-04-26T09:10:10;13.20;76.50
27200;DHT22;14714;48.106;11.546;2023-04-26T09:12:38;13.40;80.70
27200;DHT22;14714;48.106;11.546;2023-04-26T09:15:05;13.90;77.80
27200;DHT22;14714;48.106;11.546;2023-04-26T09:17:37;14.20;76.00
27200;DHT22;14714;48.106;11.546;2023-04-26T09:22:53;13.60;74.90
27200;DHT22;14714;48.106;11.546;2023-04-26T09:25:28;13.20;77.80
27200;DHT22;14714;48.106;11.546;2023-04-26T09:27:56;12.80;78.70
27200;DHT22;14714;48.106;11.546;2023-04-26T09:30:23;12.50;82.20
27200;DHT22;14714;48.106;11.546;2023-04-26T09:32:57;12.40;84.30
27200;DHT22;14714;48.106;11.546;2023-04-26T09:35:33;12.30;86.50
27200;DHT22;14714;48.106;11.546;2023-04-26T09:38:02;12.30;87.40
27200;DHT22;14714;48.106;11.546;2023-04-26T09:43:06;12.80;87.10
27200;DHT22;14714;48.106;11.546;2023-04-26T09:45:48;13.30;88.00
27200;DHT22;14714;48.106;11.546;2023-04-26T09:48:31;13.80;84.10
27200;DHT22;14714;48.106;11.546;2023-04-26T09:51:08;14.30;81.70
27200;DHT22;14714;48.106;11.546;2023-04-26T09:53:40;14.70;78.30
27200;DHT22;14714;48.106;11.546;2023-04-26T09:56:14;14.80;77.80
27200;DHT22;14714;48.106;11.546;2023-04-26T10:01:10;14.40;76.90
27200;DHT22;14714;48.106;11.546;2023-04-26T10:03:40;14.00;77.30
27200;DHT22;14714;48.106;11.546;2023-04-26T10:06:08;13.50;79.00
27200;DHT22;14714;48.106;11.546;2023-04-26T10:08:35;13.00;79.40
27200;DHT22;14714;48.106;11.546;2023-04-26T10:11:03;12.60;84.00
27200;DHT22;14714;48.106;11.546;2023-04-26T10:13:31;12.30;87.10
27200;DHT22;14714;48.106;11.546;2023-04-26T10:16:02;12.10;89.40
27200;DHT22;14714;48.106;11.546;2023-04-26T10:18:30;11.90;91.10
27200;DHT22;14714;48.106;11.546;2023-04-26T10:21:21;11.90;91.80
27200;DHT22;14714;48.106;11.546;2023-04-26T10:23:50;12.00;90.40
27200;DHT22;14714;48.106;11.546;2023-04-26T10:26:50;12.40;91.60
27200;DHT22;14714;48.106;11.546;2023-04-26T10:29:23;13.90;90.90
27200;DHT22;14714;48.106;11.546;2023-04-26T10:34:37;16.80;78.50
27200;DHT22;14714;48.106;11.546;2023-04-26T10:37:17;17.90;73.70
27200;DHT22;14714;48.106;11.546;2023-04-26T10:39:45;18.80;67.80
27200;DHT22;14714;48.106;11.546;2023-04-26T10:42:26;19.40;66.30
27200;DHT22;14714;48.106;11.546;2023-04-26T10:45:23;19.90;65.20
27200;DHT22;14714;48.106;11.546;2023-04-26T10:47:44;20.30;58.00
27200;DHT22;14714;48.106;11.546;2023-04-26T10:50:13;20.40;58.70
27200;DHT22;14714;48.106;11.546;2023-04-26T10:55:42;19.30;58.60
27200;DHT22;14714;48.106;11.546;2023-04-26T10:58:30;18.60;60.30
27200;DHT22;14714;48.106;11.546;2023-04-26T11:01:16;18.20;60.70
27200;DHT22;14714;48.106;11.546;2023-04-26T11:04:06;18.10;61.50
27200;DHT22;14714;48.106;11.546;2023-04-26T11:12:12;17.80;63.00
27200;DHT22;14714;48.106;11.546;2023-04-26T11:14:44;17.90;62.80
27200;DHT22;14714;48.106;11.546;2023-04-26T11:17:11;18.00;60.40
27200;DHT22;14714;48.106;11.546;2023-04-26T11:19:40;17.90;59.10
27200;DHT22;14714;48.106;11.546;2023-04-26T11:22:07;17.50;59.30
27200;DHT22;14714;48.106;11.546;2023-04-26T11:24:34;17.10;57.70
27200;DHT22;14714;48.106;11.546;2023-04-26T11:27:08;17.00;60.60
27200;DHT22;14714;48.106;11.546;2023-04-26T11:29:36;17.20;60.60
27200;DHT22;14714;48.106;11.546;2023-04-26T11:32:03;17.30;59.10
27200;DHT22;14714;48.106;11.546;2023-04-26T11:36:58;16.80;60.40
27200;DHT22;14714;48.106;11.546;2023-04-26T11:39:25;16.70;61.80
27200;DHT22;14714;48.106;11.546;2023-04-26T11:42:05;16.70;62.30
27200;DHT22;14714;48.106;11.546;2023-04-26T11:44:33;16.60;60.10
27200;DHT22;14714;48.106;11.546;2023-04-26T11:47:00;16.40;59.50
27200;DHT22;14714;48.106;11.546;2023-04-26T11:49:30;16.30;61.00
27200;DHT22;14714;48.106;11.546;2023-04-26T11:51:57;16.00;62.90
27200;DHT22;14714;48.106;11.546;2023-04-26T11:54:31;15.80;64.50
27200;DHT22;14714;48.106;11.546;2023-04-26T11:56:58;15.80;64.50
27200;DHT22;14714;48.106;11.546;2023-04-26T11:59:26;15.70;65.80
27200;DHT22;14714;48.106;11.546;2023-04-26T12:01:58;15.80;64.30
27200;DHT22;14714;48.106;11.546;2023-04-26T12:04:28;15.60;62.10
27200;DHT22;14714;48.106;11.546;2023-04-26T12:06:56;15.30;65.10
27200;DHT22;14714;48.106;11.546;2023-04-26T12:09:27;15.10;63.30
27200;DHT22;14714;48.106;11.546;2023-04-26T12:12:02;15.00;63.60
27200;DHT22;14714;48.106;11.546;2023-04-26T12:14:39;15.00;68.50
27200;DHT22;14714;48.106;11.546;2023-04-26T12:17:06;15.10;64.50
27200;DHT22;14714;48.106;11.546;2023-04-26T12:19:38;15.20;66.80
27200;DHT22;14714;48.106;11.546;2023-04-26T12:22:05;15.50;65.60
27200;DHT22;14714;48.106;11.546;2023-04-26T12:24:33;15.70;67.50
27200;DHT22;14714;48.106;11.546;2023-04-26T12:27:04;16.00;65.40
27200;DHT22;14714;48.106;11.546;2023-04-26T12:29:34;16.10;63.90
27200;DHT22;14714;48.106;11.546;2023-04-26T12:32:01;16.30;62.30
27200;DHT22;14714;48.106;11.546;2023-04-26T12:34:28;16.20;61.30
27200;DHT22;14714;48.106;11.546;2023-04-26T12:36:55;16.10;61.50
27200;DHT22;14714;48.106;11.546;2023-04-26T12:39:22;16.00;62.40
27200;DHT22;14714;48.106;11.546;2023-04-26T12:41:49;15.80;63.00
27200;DHT22;14714;48.106;11.546;2023-04-26T12:44:15;15.80;62.20
27200;DHT22;14714;48.106;11.546;2023-04-26T12:46:45;15.70;63.40
27200;DHT22;14714;48.106;11.546;2023-04-26T12:49:12;15.50;62.90
27200;DHT22;14714;48.106;11.546;2023-04-26T12:51:39;15.40;64.10
27200;DHT22;14714;48.106;11.546;2023-04-26T12:54:06;15.30;64.50
27200;DHT22;14714;48.106;11.546;2023-04-26T12:56:33;15.30;66.60
27200;DHT22;14714;48.106;11.546;2023-04-26T12:59:00;15.50;65.80
27200;DHT22;14714;48.106;11.546;2023-04-26T13:01:27;15.60;68.30
27200;DHT22;14714;48.106;11.546;2023-04-26T13:03:54;15.90;67.00
27200;DHT22;14714;48.106;11.546;2023-04-26T13:06:22;16.20;65.60
27200;DHT22;14714;48.106;11.546;2023-04-26T13:08:49;16.20;62.60
27200;DHT22;14714;48.106;11.546;2023-04-26T13:11:16;16.00;62.30
27200;DHT22;14714;48.106;11.546;2023-04-26T13:13:43;15.80;63.40
27200;DHT22;14714;48.106;11.546;2023-04-26T13:16:11;15.50;64.30
27200;DHT22;14714;48.106;11.546;2023-04-26T13:18:39;15.50;65.20
27200;DHT22;14714;48.106;11.546;2023-04-26T13:21:06;15.60;65.90
27200;DHT22;14714;48.106;11.546;2023-04-26T13:23:33;15.70;65.70
27200;DHT22;14714;48.106;11.546;2023-04-26T13:26:00;15.90;66.10
27200;DHT22;14714;48.106;11.546;2023-04-26T13:28:27;16.00;65.60
27200;DHT22;14714;48.106;11.546;2023-04-26T13:30:53;16.10;61.20
27200;DHT22;14714;48.106;11.546;2023-04-26T13:33:21;16.20;62.90
27200;DHT22;14714;48.106;11.546;2023-04-26T13:35:48;16.20;64.60
27200;DHT22;14714;48.106;11.546;2023-04-26T13:38:15;16.30;63.70
27200;DHT22;14714;48.106;11.546;2023-04-26T13:40:43;16.40;61.10
27200;DHT22;14714;48.106;11.546;2023-04-26T13:43:10;16.50;62.20
27200;DHT22;14714;48.106;11.546;2023-04-26T13:45:37;16.50;61.50
27200;DHT22;14714;48.106;11.546;2023-04-26T13:48:04;16.50;60.40
27200;DHT22;14714;48.106;11.546;2023-04-26T13:50:31;16.40;61.40
27200;DHT22;14714;48.106;11.546;2023-04-26T13:52:58;16.30;60.20
27200;DHT22;14714;48.106;11.546;2023-04-26T13:55:25;16.20;61.20
27200;DHT22;14714;48.106;11.546;2023-04-26T13:57:52;16.20;62.40
27200;DHT22;14714;48.106;11.546;2023-04-26T14:00:19;16.20;63.60
27200;DHT22;14714;48.106;11.546;2023-04-26T14:02:46;16.40;62.40
27200;DHT22;14714;48.106;11.546;2023-04-26T14:05:13;16.50;60.20
27200;DHT22;14714;48.106;11.546;2023-04-26T14:07:40;16.60;60.70
27200;DHT22;14714;48.106;11.546;2023-04-26T14:10:08;16.70;60.40
27200;DHT22;14714;48.106;11.546;2023-04-26T14:12:35;16.70;61.50
27200;DHT22;14714;48.106;11.546;2023-04-26T14:15:02;16.80;59.70
27200;DHT22;14714;48.106;11.546;2023-04-26T14:17:31;16.60;59.00
27200;DHT22;14714;48.106;11.546;2023-04-26T14:19:58;16.50;58.70
27200;DHT22;14714;48.106;11.546;2023-04-26T14:22:25;16.40;60.30
27200;DHT22;14714;48.106;11.546;2023-04-26T14:24:53;16.30;58.80
27200;DHT22;14714;48.106;11.546;2023-04-26T14:27:19;16.20;61.10
27200;DHT22;14714;48.106;11.546;2023-04-26T14:29:46;16.00;61.30
27200;DHT22;14714;48.106;11.546;2023-04-26T14:32:13;16.00;61.70
27200;DHT22;14714;48.106;11.546;2023-04-26T14:34:40;15.90;62.60
27200;DHT22;14714;48.106;11.546;2023-04-26T14:37:08;15.80;58.90
27200;DHT22;14714;48.106;11.546;2023-04-26T14:39:35;15.60;62.90
27200;DHT22;14714;48.106;11.546;2023-04-26T14:42:03;15.40;61.00
27200;DHT22;14714;48.106;11.546;2023-04-26T14:44:29;15.30;63.10
27200;DHT22;14714;48.106;11.546;2023-04-26T14:46:56;15.20;62.40
27200;DHT22;14714;48.106;11.546;2023-04-26T14:49:23;15.20;63.70
27200;DHT22;14714;48.106;11.546;2023-04-26T14:51:50;15.20;61.70
27200;DHT22;14714;48.106;11.546;2023-04-26T14:54:19;15.20;61.00
27200;DHT22;14714;48.106;11.546;2023-04-26T14:56:47;15.20;61.50
27200;DHT22;14714;48.106;11.546;2023-04-26T14:59:14;15.10;62.60
27200;DHT22;14714;48.106;11.546;2023-04-26T15:01:41;15.10;61.50
27200;DHT22;14714;48.106;11.546;2023-04-26T15:04:08;15.00;63.20
27200;DHT22;14714;48.106;11.546;2023-04-26T15:06:35;15.00;62.80
27200;DHT22;14714;48.106;11.546;2023-04-26T15:09:02;14.80;63.80
27200;DHT22;14714;48.106;11.546;2023-04-26T15:11:29;14.70;63.60
27200;DHT22;14714;48.106;11.546;2023-04-26T15:13:56;14.50;64.10
27200;DHT22;14714;48.106;11.546;2023-04-26T15:16:23;14.30;65.90
27200;DHT22;14714;48.106;11.546;2023-04-26T15:18:50;14.20;66.10
27200;DHT22;14714;48.106;11.546;2023-04-26T15:21:18;14.20;66.60
27200;DHT22;14714;48.106;11.546;2023-04-26T15:23:45;14.10;66.90
27200;DHT22;14714;48.106;11.546;2023-04-26T15:26:12;14.20;66.00
27200;DHT22;14714;48.106;11.546;2023-04-26T15:28:39;14.20;66.10
27200;DHT22;14714;48.106;11.546;2023-04-26T15:31:09;14.20;66.40
27200;DHT22;14714;48.106;11.546;2023-04-26T15:33:37;14.20;65.80
27200;DHT22;14714;48.106;11.546;2023-04-26T15:36:03;14.20;66.20
27200;DHT22;14714;48.106;11.546;2023-04-26T15:38:32;14.20;65.20
27200;DHT22;14714;48.106;11.546;2023-04-26T15:40:59;14.20;65.20
27200;DHT22;14714;48.106;11.546;2023-04-26T15:43:26;14.20;65.50
27200;DHT22;14714;48.106;11.546;2023-04-26T15:45:53;14.20;66.90
27200;DHT22;14714;48.106;11.546;2023-04-26T15:48:20;14.20;66.90
27200;DHT22;14714;48.106;11.546;2023-04-26T15:50:47;14.10;66.50
27200;DHT22;14714;48.106;11.546;2023-04-26T15:53:14;14.10;66.60